Time;durP1;ratioP1;P1;durP2;ratioP2;P2;SDS_P1;SDS_P2;PMS_P1;PMS_P2;Temp;Humidity;BMP_temperature;BMP_pressure;BME280_temperature;BME280_humidity;BME280_pressure;Samples;Min_cycle;Max_cycle;Signal;HPM_P1;HPM_P2
2021/08/17 00:02:16;;;;;;;7.95;3.33;;;;;;;;;;6210361;28;20046;-81
2021/08/17 00:05:18;;;;;;;8.95;3.15;;;;;;;;;;6209073;28;20046;-81
2021/08/17 00:08:19;;;;;;;7.03;3.10;;;;;;;;;;6233962;28;20042;-80
2021/08/17 00:11:21;;;;;;;10.27;3.47;;;;;;;;;;6234803;28;20664;-81
2021/08/17 00:14:22;;;;;;;6.55;2.67;;;;;;;;;;6216355;28;20053;-81
2021/08/17 00:17:24;;;;;;;10.68;3.05;;;;;;;;;;6233553;28;20041;-81
2021/08/17 00:20:25;;;;;;;7.47;2.88;;;;;;;;;;6233978;28;20042;-80
2021/08/17 00:23:29;;;;;;;8.50;3.10;;;;;;;;;;6214866;28;20038;-81
2021/08/17 00:26:31;;;;;;;6.85;3.28;;;;;;;;;;6217396;28;20112;-80
2021/08/17 00:29:32;;;;;;;9.40;3.20;;;;;;;;;;6217582;28;20128;-81
2021/08/17 00:32:35;;;;;;;10.90;3.90;;;;;;;;;;6211235;28;20512;-82
2021/08/17 00:35:37;;;;;;;6.55;3.45;;;;;;;;;;6184085;28;20099;-82
2021/08/17 00:38:39;;;;;;;12.38;3.97;;;;;;;;;;6185994;28;20054;-80
2021/08/17 00:41:41;;;;;;;7.07;3.77;;;;;;;;;;6185934;28;20046;-81
2021/08/17 00:44:43;;;;;;;9.57;4.30;;;;;;;;;;6196198;28;20046;-81
2021/08/17 00:47:44;;;;;;;9.50;4.13;;;;;;;;;;6233663;28;20046;-81
2021/08/17 00:50:47;;;;;;;7.85;4.13;;;;;;;;;;6234307;28;20102;-80
2021/08/17 00:53:51;;;;;;;10.70;4.63;;;;;;;;;;6229274;28;20061;-81
2021/08/17 00:56:58;;;;;;;8.70;4.63;;;;;;;;;;6232370;28;20073;-80
2021/08/17 00:59:59;;;;;;;10.38;4.20;;;;;;;;;;6215874;28;20040;-80
2021/08/17 01:03:01;;;;;;;8.60;4.90;;;;;;;;;;6232635;28;20054;-80
2021/08/17 01:06:03;;;;;;;12.23;4.97;;;;;;;;;;6233274;28;20065;-81
2021/08/17 01:09:05;;;;;;;9.27;4.75;;;;;;;;;;6230040;28;20045;-82
2021/08/17 01:12:08;;;;;;;13.25;5.45;;;;;;;;;;6207759;28;20122;-81
2021/08/17 01:15:12;;;;;;;9.50;4.97;;;;;;;;;;6199054;28;20069;-81
2021/08/17 01:18:13;;;;;;;10.27;5.20;;;;;;;;;;6231908;28;20094;-81
2021/08/17 01:21:16;;;;;;;10.93;5.38;;;;;;;;;;6202169;28;20077;-81
2021/08/17 01:24:18;;;;;;;10.98;4.88;;;;;;;;;;6184936;28;20472;-80
2021/08/17 01:27:20;;;;;;;14.02;5.28;;;;;;;;;;6183134;28;20042;-81
2021/08/17 01:30:21;;;;;;;11.30;4.93;;;;;;;;;;6188738;28;20111;-80
2021/08/17 01:33:23;;;;;;;12.23;5.05;;;;;;;;;;6185893;28;20042;-81
2021/08/17 01:36:24;;;;;;;13.50;5.00;;;;;;;;;;6202527;28;20524;-80
2021/08/17 01:39:26;;;;;;;12.70;4.70;;;;;;;;;;6225491;28;20038;-80
2021/08/17 01:42:28;;;;;;;10.48;5.22;;;;;;;;;;6230201;28;20050;-81
2021/08/17 01:45:30;;;;;;;10.00;4.70;;;;;;;;;;6229807;28;20513;-80
2021/08/17 01:48:32;;;;;;;11.35;4.75;;;;;;;;;;6207374;28;20042;-80
2021/08/17 01:51:34;;;;;;;12.40;4.78;;;;;;;;;;6206261;28;20050;-81
2021/08/17 01:54:35;;;;;;;10.35;4.55;;;;;;;;;;6229719;28;20053;-80
2021/08/17 01:57:40;;;;;;;8.00;4.75;;;;;;;;;;6226900;28;20101;-80
2021/08/17 02:00:46;;;;;;;12.02;4.78;;;;;;;;;;6206492;28;20064;-80
2021/08/17 02:03:48;;;;;;;10.95;5.13;;;;;;;;;;6232329;28;20057;-80
2021/08/17 02:06:49;;;;;;;12.85;5.38;;;;;;;;;;6191663;28;20126;-81
2021/08/17 02:09:52;;;;;;;11.30;5.18;;;;;;;;;;6184693;28;20046;-80
2021/08/17 02:12:53;;;;;;;11.13;5.38;;;;;;;;;;6207473;28;20054;-81
2021/08/17 02:15:57;;;;;;;13.18;5.35;;;;;;;;;;6229367;28;20134;-81
2021/08/17 02:18:58;;;;;;;11.23;5.85;;;;;;;;;;6231302;28;20030;-80
2021/08/17 02:22:00;;;;;;;12.23;5.10;;;;;;;;;;6189368;28;20062;-80
2021/08/17 02:25:02;;;;;;;12.45;5.90;;;;;;;;;;6207599;28;20046;-80
2021/08/17 02:28:04;;;;;;;8.35;4.57;;;;;;;;;;6227074;28;20046;-82
2021/08/17 02:31:05;;;;;;;11.63;4.57;;;;;;;;;;6214384;28;20050;-80
2021/08/17 02:34:07;;;;;;;11.63;4.95;;;;;;;;;;6213864;28;20089;-83
2021/08/17 02:37:08;;;;;;;12.75;5.65;;;;;;;;;;6205847;28;20358;-83
2021/08/17 02:40:11;;;;;;;11.68;5.35;;;;;;;;;;6231670;28;20038;-80
2021/08/17 02:43:12;;;;;;;13.20;5.05;;;;;;;;;;6211108;28;20058;-82
2021/08/17 02:46:14;;;;;;;9.73;4.78;;;;;;;;;;6215890;28;20050;-80
2021/08/17 02:49:15;;;;;;;9.80;5.28;;;;;;;;;;6231365;28;20050;-80
2021/08/17 02:52:17;;;;;;;10.88;5.80;;;;;;;;;;6213574;28;20114;-82
2021/08/17 02:55:19;;;;;;;11.07;5.25;;;;;;;;;;6230254;28;20042;-80
2021/08/17 02:58:21;;;;;;;13.10;5.40;;;;;;;;;;6230333;28;20050;-80
2021/08/17 03:01:22;;;;;;;12.48;5.78;;;;;;;;;;6212005;28;20053;-80
2021/08/17 03:04:24;;;;;;;10.50;5.15;;;;;;;;;;6204652;28;20070;-80
2021/08/17 03:07:26;;;;;;;9.63;5.10;;;;;;;;;;6193606;28;20053;-80
2021/08/17 03:10:28;;;;;;;11.50;5.20;;;;;;;;;;6203613;28;20082;-80
2021/08/17 03:13:29;;;;;;;18.17;5.63;;;;;;;;;;6202846;28;20042;-80
2021/08/17 03:16:31;;;;;;;10.50;4.65;;;;;;;;;;6189414;28;20055;-81
2021/08/17 03:19:33;;;;;;;9.45;5.47;;;;;;;;;;6196026;28;20054;-80
2021/08/17 03:22:36;;;;;;;11.52;5.90;;;;;;;;;;6181980;28;20047;-81
2021/08/17 03:25:38;;;;;;;15.30;5.50;;;;;;;;;;6187507;28;20070;-80
2021/08/17 03:28:39;;;;;;;15.38;5.53;;;;;;;;;;6209325;28;20064;-81
2021/08/17 03:31:41;;;;;;;13.02;5.35;;;;;;;;;;6212953;28;20056;-81
2021/08/17 03:34:42;;;;;;;14.27;6.03;;;;;;;;;;6229876;28;20057;-80
2021/08/17 03:37:44;;;;;;;12.10;5.43;;;;;;;;;;6213744;28;20179;-80
2021/08/17 03:40:46;;;;;;;17.85;5.78;;;;;;;;;;6231621;28;20046;-79
2021/08/17 03:43:47;;;;;;;14.13;6.38;;;;;;;;;;6222770;28;20113;-79
2021/08/17 03:46:49;;;;;;;13.20;5.65;;;;;;;;;;6214027;28;20485;-79
2021/08/17 03:49:50;;;;;;;13.60;5.85;;;;;;;;;;6211144;28;20052;-79
2021/08/17 03:52:52;;;;;;;15.05;6.90;;;;;;;;;;6226630;28;20497;-79
2021/08/17 03:55:54;;;;;;;16.17;7.35;;;;;;;;;;6205146;28;20050;-78
2021/08/17 03:58:55;;;;;;;14.82;6.70;;;;;;;;;;6223759;28;20040;-79
2021/08/17 04:01:57;;;;;;;14.07;6.90;;;;;;;;;;6202219;28;20137;-79
2021/08/17 04:04:58;;;;;;;16.15;6.80;;;;;;;;;;6203346;28;20114;-79
2021/08/17 04:08:02;;;;;;;19.40;7.22;;;;;;;;;;6202506;28;20140;-79
2021/08/17 04:11:03;;;;;;;14.40;6.72;;;;;;;;;;6207712;28;20141;-79
2021/08/17 04:14:05;;;;;;;17.17;7.28;;;;;;;;;;6212516;28;20274;-79
2021/08/17 04:17:08;;;;;;;15.23;7.22;;;;;;;;;;6227628;28;20132;-78
2021/08/17 04:20:11;;;;;;;17.58;7.30;;;;;;;;;;6223980;28;20062;-79
2021/08/17 04:23:12;;;;;;;;;;;;;;;;;;6204238;28;20039;-79
2021/08/17 04:26:14;;;;;;;16.48;6.93;;;;;;;;;;6178990;28;20307;-79
2021/08/17 04:29:16;;;;;;;14.73;6.80;;;;;;;;;;6178799;28;20042;-79
2021/08/17 04:32:18;;;;;;;15.07;6.63;;;;;;;;;;6203398;28;20185;-79
2021/08/17 04:35:19;;;;;;;19.10;7.30;;;;;;;;;;6213613;28;20105;-79
2021/08/17 04:38:21;;;;;;;15.80;6.95;;;;;;;;;;6228250;28;20042;-79
2021/08/17 04:41:23;;;;;;;18.35;7.03;;;;;;;;;;6226049;28;20063;-79
2021/08/17 04:44:24;;;;;;;18.38;8.88;;;;;;;;;;6224218;28;20050;-79
2021/08/17 04:47:26;;;;;;;18.63;8.13;;;;;;;;;;6218079;28;20109;-79
2021/08/17 04:50:28;;;;;;;16.35;7.35;;;;;;;;;;6226525;28;20109;-78
2021/08/17 04:53:29;;;;;;;16.73;7.53;;;;;;;;;;6198366;28;20044;-79
2021/08/17 04:56:31;;;;;;;14.23;6.72;;;;;;;;;;6181957;28;20070;-79
2021/08/17 04:59:32;;;;;;;15.20;7.68;;;;;;;;;;6171935;28;20042;-80
2021/08/17 05:02:34;;;;;;;16.20;7.63;;;;;;;;;;6181610;28;20035;-78
2021/08/17 05:05:36;;;;;;;17.35;7.50;;;;;;;;;;6179646;28;20046;-78
2021/08/17 05:08:38;;;;;;;15.15;6.95;;;;;;;;;;6180857;28;20047;-79
2021/08/17 05:11:40;;;;;;;18.13;8.10;;;;;;;;;;6179917;28;20511;-79
2021/08/17 05:14:41;;;;;;;16.45;7.40;;;;;;;;;;6178805;28;20051;-79
2021/08/17 05:17:43;;;;;;;24.45;7.95;;;;;;;;;;6199653;28;20619;-79
2021/08/17 05:20:44;;;;;;;18.27;8.38;;;;;;;;;;6202009;28;20058;-79
2021/08/17 05:23:46;;;;;;;21.23;8.30;;;;;;;;;;6196940;28;20110;-80
2021/08/17 05:26:47;;;;;;;18.23;7.90;;;;;;;;;;6182061;28;20122;-79
2021/08/17 05:29:52;;;;;;;17.77;7.18;;;;;;;;;;6185847;28;20046;-79
2021/08/17 05:32:53;;;;;;;16.98;7.22;;;;;;;;;;6225617;28;20418;-81
2021/08/17 05:35:55;;;;;;;17.50;7.75;;;;;;;;;;6224574;28;20045;-79
2021/08/17 05:38:56;;;;;;;17.92;8.00;;;;;;;;;;6224501;28;20414;-78
2021/08/17 05:41:58;;;;;;;18.20;8.00;;;;;;;;;;6223335;28;20050;-79
2021/08/17 05:45:00;;;;;;;17.33;7.60;;;;;;;;;;6203130;28;20048;-79
2021/08/17 05:48:01;;;;;;;15.52;7.15;;;;;;;;;;6204451;28;20125;-79
2021/08/17 05:51:03;;;;;;;15.68;7.55;;;;;;;;;;6217496;28;20402;-80
2021/08/17 05:54:04;;;;;;;16.10;7.28;;;;;;;;;;6206308;28;20056;-79
2021/08/17 05:57:07;;;;;;;16.85;7.65;;;;;;;;;;6226364;28;20048;-80
2021/08/17 06:00:11;;;;;;;16.88;8.68;;;;;;;;;;6190936;28;20051;-79
2021/08/17 06:03:13;;;;;;;17.83;7.40;;;;;;;;;;6191190;28;20046;-79
2021/08/17 06:06:15;;;;;;;20.05;8.30;;;;;;;;;;6220564;28;20141;-79
2021/08/17 06:09:18;;;;;;;18.98;7.38;;;;;;;;;;6203865;28;20119;-80
2021/08/17 06:12:20;;;;;;;19.50;7.88;;;;;;;;;;6202180;28;20443;-79
2021/08/17 06:15:22;;;;;;;16.27;7.68;;;;;;;;;;6209452;28;20048;-78
2021/08/17 06:18:24;;;;;;;15.25;7.88;;;;;;;;;;6225300;28;20044;-79
2021/08/17 06:21:26;;;;;;;17.40;7.72;;;;;;;;;;6222054;28;20046;-79
2021/08/17 06:24:27;;;;;;;15.25;8.05;;;;;;;;;;6222252;28;20124;-79
2021/08/17 06:27:29;;;;;;;14.13;7.03;;;;;;;;;;6221231;28;20046;-80
2021/08/17 06:30:31;;;;;;;18.60;7.80;;;;;;;;;;6203138;28;20039;-79
2021/08/17 06:33:32;;;;;;;20.45;8.45;;;;;;;;;;6199797;28;20050;-79
2021/08/17 06:36:36;;;;;;;;;;;;;;;;;;6203091;28;20046;-79
2021/08/17 06:39:38;;;;;;;16.83;6.95;;;;;;;;;;6205153;28;19945;-79
2021/08/17 06:42:40;;;;;;;18.10;8.35;;;;;;;;;;6191356;28;20065;-80
2021/08/17 06:45:42;;;;;;;15.05;7.25;;;;;;;;;;6223826;28;20439;-81
2021/08/17 06:48:43;;;;;;;17.40;7.47;;;;;;;;;;6212819;28;20046;-82
2021/08/17 06:51:45;;;;;;;17.98;7.50;;;;;;;;;;6229998;28;20049;-82
2021/08/17 06:54:46;;;;;;;15.23;7.10;;;;;;;;;;6230279;28;20042;-82
2021/08/17 06:57:48;;;;;;;15.00;7.10;;;;;;;;;;6230495;28;20456;-82
2021/08/17 07:00:50;;;;;;;16.50;7.30;;;;;;;;;;6204252;28;20049;-80
2021/08/17 07:03:52;;;;;;;19.15;7.97;;;;;;;;;;6206946;28;20282;-79
2021/08/17 07:06:54;;;;;;;14.88;7.32;;;;;;;;;;6199530;28;20061;-80
2021/08/17 07:09:56;;;;;;;20.55;8.52;;;;;;;;;;6195164;28;20141;-78
2021/08/17 07:12:57;;;;;;;18.33;7.75;;;;;;;;;;6200453;28;20049;-79
2021/08/17 07:16:00;;;;;;;17.73;8.18;;;;;;;;;;6205971;28;20042;-80
2021/08/17 07:19:02;;;;;;;19.05;9.18;;;;;;;;;;6230132;28;20046;-81
2021/08/17 07:22:04;;;;;;;17.80;7.95;;;;;;;;;;6218550;28;20133;-80
2021/08/17 07:25:06;;;;;;;20.52;8.80;;;;;;;;;;6204637;28;20057;-79
2021/08/17 07:28:12;;;;;;;15.48;7.97;;;;;;;;;;6201431;28;20058;-81
2021/08/17 07:31:14;;;;;;;16.92;7.45;;;;;;;;;;6206351;28;20471;-80
2021/08/17 07:34:16;;;;;;;15.70;7.93;;;;;;;;;;6200096;28;20097;-80
2021/08/17 07:37:17;;;;;;;14.68;7.43;;;;;;;;;;6210032;28;20452;-80
2021/08/17 07:40:19;;;;;;;20.67;7.72;;;;;;;;;;6205913;28;20187;-80
2021/08/17 07:43:20;;;;;;;16.30;7.72;;;;;;;;;;6206234;28;20050;-80
2021/08/17 07:46:22;;;;;;;15.88;7.38;;;;;;;;;;6179405;28;20042;-80
2021/08/17 07:49:24;;;;;;;18.48;8.43;;;;;;;;;;6206506;28;20042;-80
2021/08/17 07:52:26;;;;;;;15.93;7.50;;;;;;;;;;6223486;28;20488;-80
2021/08/17 07:55:27;;;;;;;20.70;8.43;;;;;;;;;;6207716;28;20062;-81
2021/08/17 07:58:29;;;;;;;18.75;8.48;;;;;;;;;;6209057;28;20046;-80
2021/08/17 08:01:30;;;;;;;20.00;8.80;;;;;;;;;;6222335;28;20046;-80
2021/08/17 08:04:32;;;;;;;16.33;7.55;;;;;;;;;;6208230;28;20038;-80
2021/08/17 08:07:34;;;;;;;16.65;8.15;;;;;;;;;;6225369;28;20054;-81
2021/08/17 08:10:36;;;;;;;18.80;8.77;;;;;;;;;;6232803;28;20067;-80
2021/08/17 08:13:38;;;;;;;19.17;8.70;;;;;;;;;;6215513;28;20132;-80
2021/08/17 08:16:39;;;;;;;21.27;9.13;;;;;;;;;;6216621;28;20046;-81
2021/08/17 08:19:41;;;;;;;16.60;8.13;;;;;;;;;;6204730;28;20048;-80
2021/08/17 08:22:43;;;;;;;19.48;8.65;;;;;;;;;;6189158;28;20270;-79
2021/08/17 08:25:45;;;;;;;17.97;8.73;;;;;;;;;;6206226;28;20052;-78
2021/08/17 08:28:47;;;;;;;19.33;9.25;;;;;;;;;;6202888;28;20043;-78
2021/08/17 08:31:48;;;;;;;18.05;9.00;;;;;;;;;;6188626;28;20050;-78
2021/08/17 08:34:50;;;;;;;18.83;8.52;;;;;;;;;;6213437;28;20058;-79
2021/08/17 08:37:52;;;;;;;18.02;8.82;;;;;;;;;;6224979;28;20057;-80
2021/08/17 08:40:54;;;;;;;18.70;8.35;;;;;;;;;;6220121;28;20041;-79
2021/08/17 08:44:00;;;;;;;17.25;9.20;;;;;;;;;;6210364;28;20049;-79
2021/08/17 08:47:01;;;;;;;21.17;9.70;;;;;;;;;;6226353;28;20042;-78
2021/08/17 08:50:04;;;;;;;19.63;9.13;;;;;;;;;;6230175;28;20072;-78
2021/08/17 08:53:05;;;;;;;19.23;9.68;;;;;;;;;;6210086;28;20052;-79
2021/08/17 08:56:07;;;;;;;19.05;9.20;;;;;;;;;;6212830;28;20052;-81
2021/08/17 08:59:09;;;;;;;19.77;10.03;;;;;;;;;;6230694;28;20061;-80
2021/08/17 09:02:14;;;;;;;17.88;8.93;;;;;;;;;;6205381;28;20042;-81
2021/08/17 09:05:17;;;;;;;21.23;8.70;;;;;;;;;;6222526;28;20038;-81
2021/08/17 09:08:28;;;;;;;19.70;9.77;;;;;;;;;;6180906;28;20045;-80
2021/08/17 09:11:30;;;;;;;18.95;8.88;;;;;;;;;;6197327;28;20050;-81
2021/08/17 09:14:34;;;;;;;19.65;9.13;;;;;;;;;;6200260;28;20050;-82
2021/08/17 09:17:36;;;;;;;17.95;8.30;;;;;;;;;;6228518;28;20042;-81
2021/08/17 09:20:42;;;;;;;16.63;8.65;;;;;;;;;;6227213;28;20044;-83
2021/08/17 09:23:44;;;;;;;17.30;8.63;;;;;;;;;;6224242;28;20071;-82
2021/08/17 09:26:48;;;;;;;18.48;9.50;;;;;;;;;;6227939;28;20041;-82
2021/08/17 09:30:00;;;;;;;16.38;8.07;;;;;;;;;;6210717;28;20045;-82
2021/08/17 09:33:02;;;;;;;17.95;8.13;;;;;;;;;;6228184;28;20096;-82
2021/08/17 09:36:05;;;;;;;18.40;8.65;;;;;;;;;;6220778;28;20046;-82
2021/08/17 09:39:06;;;;;;;16.23;8.23;;;;;;;;;;6201627;28;20061;-82
2021/08/17 09:42:29;;;;;;;20.15;7.78;;;;;;;;;;6198220;28;20046;-81
2021/08/17 09:45:33;;;;;;;15.27;8.18;;;;;;;;;;6209806;28;20053;-82
2021/08/17 09:48:35;;;;;;;19.92;8.52;;;;;;;;;;6216317;28;20053;-79
2021/08/17 09:51:37;;;;;;;20.30;8.75;;;;;;;;;;6214197;28;20511;-79
2021/08/17 09:54:44;;;;;;;19.10;8.98;;;;;;;;;;6214616;28;20507;-80
2021/08/17 09:57:46;;;;;;;17.40;7.97;;;;;;;;;;6217160;28;20053;-80
2021/08/17 10:00:49;;;;;;;17.67;7.88;;;;;;;;;;6174174;28;20061;-80
2021/08/17 10:03:52;;;;;;;14.05;7.22;;;;;;;;;;6193407;28;20058;-80
2021/08/17 10:06:58;;;;;;;18.57;7.80;;;;;;;;;;6198357;28;20521;-79
2021/08/17 10:10:00;;;;;;;17.13;7.55;;;;;;;;;;6193286;28;20054;-80
2021/08/17 10:13:02;;;;;;;17.50;8.98;;;;;;;;;;6199260;28;20082;-79
2021/08/17 10:16:04;;;;;;;19.40;8.88;;;;;;;;;;6187081;28;20046;-81
2021/08/17 10:19:06;;;;;;;19.55;7.40;;;;;;;;;;6144353;28;20054;-80
2021/08/17 10:22:08;;;;;;;14.27;7.28;;;;;;;;;;6188668;28;20049;-82
2021/08/17 10:25:17;;;;;;;15.98;7.45;;;;;;;;;;6223144;28;20052;-80
2021/08/17 10:28:31;;;;;;;14.90;7.85;;;;;;;;;;6223127;28;20046;-81
2021/08/17 10:31:33;;;;;;;16.02;7.30;;;;;;;;;;6196197;28;20045;-80
2021/08/17 10:34:37;;;;;;;19.53;8.33;;;;;;;;;;6198213;28;20042;-81
2021/08/17 10:37:38;;;;;;;;;;;;;;;;;;6197230;28;20094;-81
2021/08/17 10:40:49;;;;;;;15.65;7.05;;;;;;;;;;6179385;28;20384;-81
2021/08/17 10:43:50;;;;;;;17.17;7.82;;;;;;;;;;6175652;28;20062;-81
2021/08/17 10:46:52;;;;;;;16.15;8.57;;;;;;;;;;6211046;28;20435;-81
2021/08/17 10:49:54;;;;;;;16.13;7.85;;;;;;;;;;6209534;28;20045;-80
2021/08/17 10:52:55;;;;;;;15.93;7.85;;;;;;;;;;6202394;28;20424;-82
2021/08/17 10:56:14;;;;;;;17.38;7.97;;;;;;;;;;6215165;28;20401;-80
2021/08/17 10:59:41;;;;;;;18.40;8.75;;;;;;;;;;6223912;28;20121;-80
2021/08/17 11:02:56;;;;;;;17.95;8.80;;;;;;;;;;6227583;28;20045;-80
2021/08/17 11:05:58;;;;;;;15.77;7.70;;;;;;;;;;6204062;28;20050;-82
2021/08/17 11:09:02;;;;;;;17.92;7.97;;;;;;;;;;6202877;28;20056;-80
2021/08/17 11:12:09;;;;;;;20.48;8.45;;;;;;;;;;6225864;28;20045;-81
2021/08/17 11:15:14;;;;;;;17.60;8.07;;;;;;;;;;6196298;28;20068;-80
2021/08/17 11:18:17;;;;;;;20.23;8.52;;;;;;;;;;6221224;28;20042;-79
2021/08/17 11:21:34;;;;;;;14.32;8.15;;;;;;;;;;6212060;28;20110;-79
2021/08/17 11:24:40;;;;;;;16.95;7.90;;;;;;;;;;6173077;28;20130;-79
2021/08/17 11:27:43;;;;;;;17.40;7.47;;;;;;;;;;6178167;28;20074;-79
2021/08/17 11:30:46;;;;;;;19.50;8.25;;;;;;;;;;6198953;28;20114;-78
2021/08/17 11:33:48;;;;;;;18.17;7.95;;;;;;;;;;6197959;28;20093;-79
2021/08/17 11:37:16;;;;;;;15.88;7.93;;;;;;;;;;6184500;28;20444;-79
2021/08/17 11:40:24;;;;;;;17.63;7.47;;;;;;;;;;6174778;28;20075;-78
2021/08/17 11:43:26;;;;;;;19.08;8.15;;;;;;;;;;6172062;28;20061;-79
2021/08/17 11:46:27;;;;;;;15.60;7.35;;;;;;;;;;6183913;28;20057;-79
2021/08/17 11:49:29;;;;;;;15.25;7.55;;;;;;;;;;6207636;28;20056;-78
2021/08/17 11:52:42;;;;;;;15.10;7.20;;;;;;;;;;6162761;28;20047;-80
2021/08/17 11:55:44;;;;;;;18.50;8.32;;;;;;;;;;6162388;28;20034;-80
2021/08/17 11:58:52;;;;;;;17.20;7.90;;;;;;;;;;6189971;28;20167;-79
2021/08/17 12:02:00;;;;;;;15.80;7.25;;;;;;;;;;6209483;28;20053;-79
2021/08/17 12:05:07;;;;;;;15.50;7.22;;;;;;;;;;6185769;28;20053;-79
2021/08/17 12:08:14;;;;;;;16.40;7.93;;;;;;;;;;6182646;28;20058;-79
2021/08/17 12:11:21;;;;;;;17.52;7.55;;;;;;;;;;6208345;28;20622;-79
2021/08/17 12:14:26;;;;;;;14.90;6.93;;;;;;;;;;6199799;28;20550;-81
2021/08/17 12:17:27;;;;;;;17.23;8.00;;;;;;;;;;6192844;28;20515;-80
2021/08/17 12:20:30;;;;;;;18.48;7.28;;;;;;;;;;6191366;28;20046;-78
2021/08/17 12:23:46;;;;;;;;;;;;;;;;;;6195325;28;20042;-79
2021/08/17 12:26:59;;;;;;;15.85;7.18;;;;;;;;;;6216889;28;20341;-80
2021/08/17 12:30:01;;;;;;;15.50;7.00;;;;;;;;;;6221047;28;20046;-80
2021/08/17 12:33:03;;;;;;;17.08;7.85;;;;;;;;;;6199817;28;20046;-79
2021/08/17 12:36:04;;;;;;;17.08;7.95;;;;;;;;;;6185348;28;20144;-78
2021/08/17 12:39:11;;;;;;;17.65;7.07;;;;;;;;;;6179593;28;20062;-79
2021/08/17 12:42:17;;;;;;;15.10;7.30;;;;;;;;;;6180851;28;20050;-79
2021/08/17 12:45:32;;;;;;;14.75;7.93;;;;;;;;;;6200938;28;20042;-79
2021/08/17 12:48:42;;;;;;;14.98;7.38;;;;;;;;;;6179980;28;20034;-79
2021/08/17 12:51:44;;;;;;;16.10;7.70;;;;;;;;;;6197126;28;20050;-79
2021/08/17 12:54:46;;;;;;;13.93;7.38;;;;;;;;;;6197069;28;20046;-78
2021/08/17 12:57:53;;;;;;;15.83;7.53;;;;;;;;;;6198043;28;20104;-79
2021/08/17 13:00:55;;;;;;;17.67;7.72;;;;;;;;;;6204406;28;20431;-79
2021/08/17 13:03:58;;;;;;;17.05;7.15;;;;;;;;;;6226668;28;20054;-79
2021/08/17 13:06:59;;;;;;;15.90;7.95;;;;;;;;;;6191431;28;20121;-79
2021/08/17 13:10:04;;;;;;;15.95;7.60;;;;;;;;;;6185339;28;20046;-79
2021/08/17 13:13:06;;;;;;;15.18;7.45;;;;;;;;;;6200352;28;20069;-79
2021/08/17 13:16:07;;;;;;;15.63;7.55;;;;;;;;;;6204591;28;20520;-79
2021/08/17 13:19:09;;;;;;;15.45;7.22;;;;;;;;;;6225945;28;20414;-79
2021/08/17 13:22:10;;;;;;;16.08;7.95;;;;;;;;;;6200506;28;20042;-79
2021/08/17 13:25:13;;;;;;;15.63;8.13;;;;;;;;;;6221586;28;20051;-78
2021/08/17 13:28:14;;;;;;;14.80;7.50;;;;;;;;;;6204587;28;20483;-77
2021/08/17 13:31:16;;;;;;;13.88;7.78;;;;;;;;;;6225029;28;20284;-78
2021/08/17 13:34:17;;;;;;;34.50;12.40;;;;;;;;;;6222492;28;20052;-78
2021/08/17 13:37:19;;;;;;;26.15;10.27;;;;;;;;;;6221723;28;20055;-78
2021/08/17 13:40:21;;;;;;;15.00;7.63;;;;;;;;;;6199914;28;20046;-78
2021/08/17 13:43:25;;;;;;;32.20;11.38;;;;;;;;;;6215765;28;20420;-80
2021/08/17 13:46:27;;;;;;;14.45;6.90;;;;;;;;;;6200508;28;20085;-77
2021/08/17 13:49:29;;;;;;;13.50;6.85;;;;;;;;;;6225766;28;20532;-79
2021/08/17 13:52:30;;;;;;;14.70;7.03;;;;;;;;;;6218515;28;20077;-78
2021/08/17 13:55:32;;;;;;;13.23;6.05;;;;;;;;;;6202971;28;20073;-78
2021/08/17 13:58:34;;;;;;;17.55;6.97;;;;;;;;;;6203863;28;20038;-78
2021/08/17 14:01:38;;;;;;;13.73;7.13;;;;;;;;;;6218964;28;20042;-77
2021/08/17 14:04:40;;;;;;;14.55;7.13;;;;;;;;;;6225302;28;20050;-78
2021/08/17 14:07:42;;;;;;;13.52;6.88;;;;;;;;;;6229078;28;20060;-80
2021/08/17 14:10:44;;;;;;;14.38;7.20;;;;;;;;;;6224951;28;20050;-79
2021/08/17 14:13:46;;;;;;;12.73;7.05;;;;;;;;;;6229417;28;20058;-79
2021/08/17 14:16:47;;;;;;;11.25;6.63;;;;;;;;;;6207311;28;20052;-79
2021/08/17 14:19:49;;;;;;;12.02;6.25;;;;;;;;;;6229687;28;20076;-79
2021/08/17 14:22:51;;;;;;;12.50;7.15;;;;;;;;;;6210634;28;20103;-80
2021/08/17 14:25:52;;;;;;;16.35;7.13;;;;;;;;;;6229870;28;20048;-77
2021/08/17 14:28:55;;;;;;;15.25;7.45;;;;;;;;;;6217328;28;20042;-77
2021/08/17 14:31:56;;;;;;;14.90;7.70;;;;;;;;;;6194311;28;20052;-78
2021/08/17 14:34:58;;;;;;;20.00;8.05;;;;;;;;;;6195130;28;20057;-78
2021/08/17 14:37:59;;;;;;;17.10;8.23;;;;;;;;;;6211767;28;20050;-78
2021/08/17 14:41:01;;;;;;;14.88;7.43;;;;;;;;;;6216190;28;20177;-78
2021/08/17 14:44:04;;;;;;;13.70;6.55;;;;;;;;;;6214208;28;20057;-78
2021/08/17 14:47:06;;;;;;;16.15;6.72;;;;;;;;;;6215163;28;20208;-78
2021/08/17 14:50:08;;;;;;;15.32;6.28;;;;;;;;;;6216284;28;20045;-78
2021/08/17 14:53:10;;;;;;;12.30;6.25;;;;;;;;;;6216866;28;20124;-78
2021/08/17 14:56:12;;;;;;;19.33;7.40;;;;;;;;;;6214584;28;20049;-78
2021/08/17 14:59:14;;;;;;;14.73;6.72;;;;;;;;;;6172600;28;20046;-78
2021/08/17 15:02:15;;;;;;;15.75;6.57;;;;;;;;;;6192680;28;20050;-78
2021/08/17 15:05:18;;;;;;;15.15;6.25;;;;;;;;;;6198357;28;20054;-78
2021/08/17 15:08:20;;;;;;;16.75;7.72;;;;;;;;;;6189517;28;20046;-78
2021/08/17 15:11:22;;;;;;;16.65;7.68;;;;;;;;;;6208784;28;20050;-78
2021/08/17 15:14:23;;;;;;;15.35;6.70;;;;;;;;;;6215404;28;20034;-78
2021/08/17 15:17:26;;;;;;;15.68;6.80;;;;;;;;;;6209612;28;20483;-78
2021/08/17 15:20:27;;;;;;;15.00;6.82;;;;;;;;;;6198985;28;20058;-78
2021/08/17 15:23:30;;;;;;;16.90;7.28;;;;;;;;;;6190546;28;20042;-78
2021/08/17 15:26:31;;;;;;;18.58;7.07;;;;;;;;;;6190776;28;20046;-78
2021/08/17 15:29:35;;;;;;;17.42;7.65;;;;;;;;;;6188007;28;20061;-78
2021/08/17 15:32:38;;;;;;;16.05;7.20;;;;;;;;;;6214555;28;20052;-78
2021/08/17 15:35:39;;;;;;;16.55;6.88;;;;;;;;;;6215808;28;20038;-78
2021/08/17 15:38:41;;;;;;;16.05;6.72;;;;;;;;;;6218963;28;20045;-77
2021/08/17 15:41:43;;;;;;;16.00;6.40;;;;;;;;;;6218892;28;20411;-78
2021/08/17 15:44:45;;;;;;;15.10;6.87;;;;;;;;;;6218687;28;20042;-78
2021/08/17 15:47:47;;;;;;;16.08;6.65;;;;;;;;;;6212993;28;20269;-78
2021/08/17 15:50:50;;;;;;;15.93;7.25;;;;;;;;;;6218159;28;20042;-77
2021/08/17 15:53:51;;;;;;;18.23;7.40;;;;;;;;;;6199436;28;20046;-78
2021/08/17 15:56:53;;;;;;;20.70;7.90;;;;;;;;;;6217986;28;20060;-78
2021/08/17 15:59:55;;;;;;;20.05;8.02;;;;;;;;;;6215974;28;20046;-79
2021/08/17 16:02:56;;;;;;;18.42;7.80;;;;;;;;;;6196437;28;20065;-78
2021/08/17 16:06:01;;;;;;;16.48;7.05;;;;;;;;;;6195302;28;20132;-79
2021/08/17 16:09:04;;;;;;;16.17;6.65;;;;;;;;;;6194143;28;20051;-78
2021/08/17 16:12:06;;;;;;;17.25;7.20;;;;;;;;;;6196866;28;20042;-78
2021/08/17 16:15:10;;;;;;;19.15;7.78;;;;;;;;;;6191331;28;20038;-78
2021/08/17 16:18:11;;;;;;;16.10;7.15;;;;;;;;;;6222549;28;20411;-79
2021/08/17 16:21:15;;;;;;;17.80;7.88;;;;;;;;;;6203799;28;20580;-78
2021/08/17 16:24:16;;;;;;;18.30;7.45;;;;;;;;;;6189237;28;20113;-78
2021/08/17 16:27:18;;;;;;;17.25;7.63;;;;;;;;;;6177723;28;20054;-79
2021/08/17 16:30:20;;;;;;;13.40;6.07;;;;;;;;;;6212954;28;20045;-78
2021/08/17 16:33:22;;;;;;;15.73;7.37;;;;;;;;;;6221736;28;20046;-78
2021/08/17 16:36:24;;;;;;;13.75;6.20;;;;;;;;;;6201557;28;20126;-79
2021/08/17 16:39:25;;;;;;;16.88;6.30;;;;;;;;;;6219762;28;20046;-78
2021/08/17 16:42:27;;;;;;;14.73;6.22;;;;;;;;;;6194136;28;20038;-78
2021/08/17 16:45:29;;;;;;;15.85;6.45;;;;;;;;;;6187874;28;20046;-78
2021/08/17 16:48:31;;;;;;;12.30;6.13;;;;;;;;;;6193430;28;20142;-78
2021/08/17 16:51:32;;;;;;;12.30;5.50;;;;;;;;;;6191097;28;20042;-78
2021/08/17 16:54:34;;;;;;;13.50;6.25;;;;;;;;;;6192082;28;20042;-78
2021/08/17 16:57:36;;;;;;;15.13;5.93;;;;;;;;;;6198211;28;20096;-77
2021/08/17 17:00:40;;;;;;;14.45;5.55;;;;;;;;;;6207298;28;20129;-76
2021/08/17 17:03:42;;;;;;;12.40;5.05;;;;;;;;;;6192564;28;20039;-77
2021/08/17 17:06:43;;;;;;;11.77;5.50;;;;;;;;;;6193187;28;20050;-77
2021/08/17 17:09:45;;;;;;;9.38;5.07;;;;;;;;;;6153748;28;20630;-77
2021/08/17 17:12:47;;;;;;;10.52;5.35;;;;;;;;;;6171311;28;20047;-77
2021/08/17 17:15:49;;;;;;;12.80;5.03;;;;;;;;;;6174666;28;20034;-77
2021/08/17 17:18:51;;;;;;;9.40;4.95;;;;;;;;;;6214690;28;20508;-77
2021/08/17 17:21:52;;;;;;;11.57;5.45;;;;;;;;;;6211564;28;20050;-77
2021/08/17 17:24:54;;;;;;;11.10;5.22;;;;;;;;;;6215918;28;20049;-78
2021/08/17 17:27:56;;;;;;;9.10;5.10;;;;;;;;;;6217021;28;20128;-77
2021/08/17 17:30:57;;;;;;;11.23;5.15;;;;;;;;;;6182512;28;20100;-78
2021/08/17 17:33:59;;;;;;;9.07;5.15;;;;;;;;;;6215844;28;20052;-78
2021/08/17 17:37:01;;;;;;;9.00;4.78;;;;;;;;;;6213180;28;20487;-78
2021/08/17 17:40:05;;;;;;;8.25;4.70;;;;;;;;;;6187795;28;20064;-79
2021/08/17 17:43:06;;;;;;;9.35;4.60;;;;;;;;;;6192880;28;20053;-79
2021/08/17 17:46:08;;;;;;;9.30;4.68;;;;;;;;;;6189536;28;20137;-78
2021/08/17 17:49:10;;;;;;;7.50;3.95;;;;;;;;;;6183025;28;20054;-78
2021/08/17 17:52:11;;;;;;;9.90;4.40;;;;;;;;;;6196152;28;20038;-80
2021/08/17 17:55:14;;;;;;;8.18;4.22;;;;;;;;;;6213375;28;20397;-78
2021/08/17 17:58:16;;;;;;;7.72;4.07;;;;;;;;;;6213795;28;20056;-78
2021/08/17 18:01:18;;;;;;;8.07;4.00;;;;;;;;;;6201358;28;20180;-78
2021/08/17 18:04:20;;;;;;;7.15;3.83;;;;;;;;;;6183847;28;20049;-78